sensor_id;sensor_type;location;lat;lon;timestamp;pressure;altitude;pressure_sealevel;temperature;humidity
6433;BME280;3249;42.690;23.260;2022-09-03T00:00:18;94401.13;;;17.04;100.00
6433;BME280;3249;42.690;23.260;2022-09-03T00:05:22;94409.41;;;17.01;100.00
6433;BME280;3249;42.690;23.260;2022-09-03T00:08:05;94409.97;;;17.03;100.00
6433;BME280;3249;42.690;23.260;2022-09-03T00:10:55;94416.72;;;17.04;100.00
6433;BME280;3249;42.690;23.260;2022-09-03T00:14:13;94414.63;;;17.01;100.00
6433;BME280;3249;42.690;23.260;2022-09-03T00:16:55;94409.66;;;17.00;100.00
6433;BME280;3249;42.690;23.260;2022-09-03T00:19:28;94402.16;;;17.03;100.00
6433;BME280;3249;42.690;23.260;2022-09-03T00:22:07;94408.44;;;17.07;100.00
6433;BME280;3249;42.690;23.260;2022-09-03T00:24:37;94402.66;;;16.95;100.00
6433;BME280;3249;42.690;23.260;2022-09-03T00:27:13;94396.47;;;17.11;100.00
6433;BME280;3249;42.690;23.260;2022-09-03T00:29:48;94378.22;;;17.01;100.00
6433;BME280;3249;42.690;23.260;2022-09-03T00:32:22;94388.34;;;16.98;100.00
6433;BME280;3249;42.690;23.260;2022-09-03T00:34:55;94391.81;;;17.13;100.00
6433;BME280;3249;42.690;23.260;2022-09-03T00:37:22;94395.69;;;17.11;100.00
6433;BME280;3249;42.690;23.260;2022-09-03T00:39:47;94395.19;;;17.09;100.00
6433;BME280;3249;42.690;23.260;2022-09-03T00:45:18;94380.34;;;17.14;100.00
6433;BME280;3249;42.690;23.260;2022-09-03T00:47:55;94397.31;;;17.22;100.00
6433;BME280;3249;42.690;23.260;2022-09-03T00:50:56;94403.56;;;17.26;100.00
6433;BME280;3249;42.690;23.260;2022-09-03T01:09:43;94397.78;;;16.67;100.00
6433;BME280;3249;42.690;23.260;2022-09-03T01:15:22;94396.16;;;16.56;100.00
6433;BME280;3249;42.690;23.260;2022-09-03T01:29:43;94424.25;;;16.33;100.00
6433;BME280;3249;42.690;23.260;2022-09-03T01:37:57;94431.03;;;16.34;100.00
6433;BME280;3249;42.690;23.260;2022-09-03T01:43:36;94440.91;;;16.37;100.00
6433;BME280;3249;42.690;23.260;2022-09-03T01:46:28;94438.56;;;16.35;100.00
6433;BME280;3249;42.690;23.260;2022-09-03T01:51:58;94417.53;;;16.37;100.00
6433;BME280;3249;42.690;23.260;2022-09-03T02:02:31;94414.25;;;16.46;100.00
6433;BME280;3249;42.690;23.260;2022-09-03T02:05:05;94417.16;;;16.50;100.00
6433;BME280;3249;42.690;23.260;2022-09-03T02:10:05;94411.13;;;16.44;100.00
6433;BME280;3249;42.690;23.260;2022-09-03T02:12:33;94414.84;;;16.27;100.00
6433;BME280;3249;42.690;23.260;2022-09-03T02:15:10;94423.38;;;16.22;100.00
6433;BME280;3249;42.690;23.260;2022-09-03T02:17:36;94416.53;;;16.11;100.00
6433;BME280;3249;42.690;23.260;2022-09-03T02:20:06;94408.19;;;16.09;100.00
6433;BME280;3249;42.690;23.260;2022-09-03T02:22:33;94423.34;;;16.17;100.00
6433;BME280;3249;42.690;23.260;2022-09-03T02:24:59;94419.69;;;16.18;100.00
6433;BME280;3249;42.690;23.260;2022-09-03T02:27:25;94412.94;;;16.17;100.00
6433;BME280;3249;42.690;23.260;2022-09-03T02:29:51;94423.16;;;16.29;100.00
6433;BME280;3249;42.690;23.260;2022-09-03T02:32:17;94423.44;;;16.27;100.00
6433;BME280;3249;42.690;23.260;2022-09-03T02:34:43;94428.19;;;16.35;100.00
6433;BME280;3249;42.690;23.260;2022-09-03T02:37:17;94430.50;;;16.37;100.00
6433;BME280;3249;42.690;23.260;2022-09-03T02:39:42;94431.31;;;16.37;100.00
6433;BME280;3249;42.690;23.260;2022-09-03T02:42:12;94428.78;;;16.42;100.00
6433;BME280;3249;42.690;23.260;2022-09-03T02:44:43;94439.25;;;16.52;100.00
6433;BME280;3249;42.690;23.260;2022-09-03T02:47:11;94434.03;;;16.47;100.00
6433;BME280;3249;42.690;23.260;2022-09-03T02:49:36;94443.81;;;16.40;100.00
6433;BME280;3249;42.690;23.260;2022-09-03T02:52:08;94433.56;;;16.29;100.00
6433;BME280;3249;42.690;23.260;2022-09-03T02:54:36;94447.94;;;16.36;100.00
6433;BME280;3249;42.690;23.260;2022-09-03T02:57:15;94442.16;;;16.29;100.00
6433;BME280;3249;42.690;23.260;2022-09-03T02:59:41;94442.50;;;16.38;100.00
6433;BME280;3249;42.690;23.260;2022-09-03T03:02:09;94444.66;;;16.46;100.00
6433;BME280;3249;42.690;23.260;2022-09-03T03:04:35;94436.94;;;16.56;100.00
6433;BME280;3249;42.690;23.260;2022-09-03T03:07:01;94441.56;;;16.49;100.00
6433;BME280;3249;42.690;23.260;2022-09-03T03:09:26;94447.81;;;16.53;100.00
6433;BME280;3249;42.690;23.260;2022-09-03T03:11:52;94417.91;;;16.19;100.00
6433;BME280;3249;42.690;23.260;2022-09-03T03:14:20;94435.94;;;16.04;100.00
6433;BME280;3249;42.690;23.260;2022-09-03T03:16:46;94425.13;;;15.64;100.00
6433;BME280;3249;42.690;23.260;2022-09-03T03:19:12;94422.78;;;15.62;100.00
6433;BME280;3249;42.690;23.260;2022-09-03T03:21:37;94418.06;;;15.59;100.00
6433;BME280;3249;42.690;23.260;2022-09-03T03:24:03;94420.19;;;15.62;100.00
6433;BME280;3249;42.690;23.260;2022-09-03T03:26:29;94410.59;;;15.63;100.00
6433;BME280;3249;42.690;23.260;2022-09-03T03:28:56;94421.63;;;15.53;100.00
6433;BME280;3249;42.690;23.260;2022-09-03T03:31:23;94426.16;;;15.63;100.00
6433;BME280;3249;42.690;23.260;2022-09-03T03:33:57;94429.66;;;15.73;100.00
6433;BME280;3249;42.690;23.260;2022-09-03T03:36:25;94411.78;;;15.55;100.00
6433;BME280;3249;42.690;23.260;2022-09-03T03:38:55;94421.56;;;15.70;100.00
6433;BME280;3249;42.690;23.260;2022-09-03T03:41:23;94402.75;;;15.58;100.00
6433;BME280;3249;42.690;23.260;2022-09-03T03:43:53;94427.78;;;15.95;100.00
6433;BME280;3249;42.690;23.260;2022-09-03T03:46:19;94431.34;;;16.11;100.00
6433;BME280;3249;42.690;23.260;2022-09-03T03:48:50;94435.06;;;16.25;100.00
6433;BME280;3249;42.690;23.260;2022-09-03T03:51:17;94431.22;;;16.27;100.00
6433;BME280;3249;42.690;23.260;2022-09-03T03:53:43;94433.84;;;16.27;100.00
6433;BME280;3249;42.690;23.260;2022-09-03T03:56:11;94432.88;;;16.38;100.00
6433;BME280;3249;42.690;23.260;2022-09-03T03:58:38;94444.28;;;16.37;100.00
6433;BME280;3249;42.690;23.260;2022-09-03T04:01:14;94447.34;;;16.56;100.00
6433;BME280;3249;42.690;23.260;2022-09-03T04:03:41;94444.53;;;16.62;100.00
6433;BME280;3249;42.690;23.260;2022-09-03T04:06:08;94434.06;;;16.52;100.00
6433;BME280;3249;42.690;23.260;2022-09-03T04:08:36;94437.50;;;16.58;100.00
6433;BME280;3249;42.690;23.260;2022-09-03T04:11:03;94444.03;;;16.65;100.00
6433;BME280;3249;42.690;23.260;2022-09-03T04:13:30;94438.84;;;16.65;100.00
6433;BME280;3249;42.690;23.260;2022-09-03T04:16:00;94434.13;;;16.62;100.00
6433;BME280;3249;42.690;23.260;2022-09-03T04:18:26;94440.44;;;16.71;100.00
6433;BME280;3249;42.690;23.260;2022-09-03T04:20:51;94442.53;;;16.74;100.00
6433;BME280;3249;42.690;23.260;2022-09-03T04:23:17;94439.88;;;16.64;100.00
6433;BME280;3249;42.690;23.260;2022-09-03T04:25:42;94452.41;;;16.72;100.00
6433;BME280;3249;42.690;23.260;2022-09-03T04:28:09;94453.69;;;16.70;100.00
6433;BME280;3249;42.690;23.260;2022-09-03T04:30:36;94447.44;;;16.66;100.00
6433;BME280;3249;42.690;23.260;2022-09-03T04:33:01;94442.34;;;16.49;100.00
6433;BME280;3249;42.690;23.260;2022-09-03T04:35:27;94467.88;;;16.57;100.00
6433;BME280;3249;42.690;23.260;2022-09-03T04:37:54;94467.59;;;16.54;100.00
6433;BME280;3249;42.690;23.260;2022-09-03T04:40:21;94466.22;;;16.46;100.00
6433;BME280;3249;42.690;23.260;2022-09-03T04:42:46;94472.94;;;16.42;100.00
6433;BME280;3249;42.690;23.260;2022-09-03T04:45:12;94466.59;;;16.33;100.00
6433;BME280;3249;42.690;23.260;2022-09-03T04:47:43;94483.75;;;16.34;100.00
6433;BME280;3249;42.690;23.260;2022-09-03T04:50:10;94494.09;;;16.29;100.00
6433;BME280;3249;42.690;23.260;2022-09-03T04:52:37;94485.28;;;16.04;100.00
6433;BME280;3249;42.690;23.260;2022-09-03T04:55:02;94485.19;;;15.94;100.00
6433;BME280;3249;42.690;23.260;2022-09-03T04:57:28;94492.56;;;15.80;100.00
6433;BME280;3249;42.690;23.260;2022-09-03T04:59:59;94480.41;;;15.86;100.00
6433;BME280;3249;42.690;23.260;2022-09-03T05:02:24;94469.19;;;15.80;100.00
6433;BME280;3249;42.690;23.260;2022-09-03T05:04:50;94501.66;;;16.04;100.00
6433;BME280;3249;42.690;23.260;2022-09-03T05:07:16;94490.94;;;16.01;100.00
6433;BME280;3249;42.690;23.260;2022-09-03T05:09:41;94504.78;;;16.06;100.00
6433;BME280;3249;42.690;23.260;2022-09-03T05:12:07;94499.56;;;16.06;100.00
6433;BME280;3249;42.690;23.260;2022-09-03T05:14:33;94508.75;;;16.14;100.00
6433;BME280;3249;42.690;23.260;2022-09-03T05:16:58;94505.94;;;16.15;100.00
6433;BME280;3249;42.690;23.260;2022-09-03T05:19:23;94498.38;;;16.14;100.00
6433;BME280;3249;42.690;23.260;2022-09-03T05:21:49;94500.53;;;16.22;100.00
6433;BME280;3249;42.690;23.260;2022-09-03T05:24:15;94501.41;;;16.32;100.00
6433;BME280;3249;42.690;23.260;2022-09-03T05:26:40;94497.19;;;16.26;100.00
6433;BME280;3249;42.690;23.260;2022-09-03T05:29:06;94513.56;;;16.27;100.00
6433;BME280;3249;42.690;23.260;2022-09-03T05:31:33;94507.09;;;16.29;100.00
6433;BME280;3249;42.690;23.260;2022-09-03T05:34:03;94514.84;;;16.24;100.00
6433;BME280;3249;42.690;23.260;2022-09-03T05:36:31;94510.41;;;16.25;100.00
6433;BME280;3249;42.690;23.260;2022-09-03T05:38:59;94513.66;;;16.37;100.00
6433;BME280;3249;42.690;23.260;2022-09-03T05:41:25;94495.81;;;16.19;100.00
6433;BME280;3249;42.690;23.260;2022-09-03T05:43:52;94512.78;;;16.26;100.00
6433;BME280;3249;42.690;23.260;2022-09-03T05:46:24;94509.16;;;16.27;100.00
6433;BME280;3249;42.690;23.260;2022-09-03T05:48:57;94510.78;;;16.33;100.00
6433;BME280;3249;42.690;23.260;2022-09-03T05:51:24;94518.53;;;16.28;100.00
6433;BME280;3249;42.690;23.260;2022-09-03T05:53:49;94514.69;;;16.36;100.00
6433;BME280;3249;42.690;23.260;2022-09-03T05:56:17;94518.16;;;16.41;100.00
6433;BME280;3249;42.690;23.260;2022-09-03T05:58:46;94524.63;;;16.65;100.00
6433;BME280;3249;42.690;23.260;2022-09-03T06:01:20;94521.44;;;16.58;100.00
6433;BME280;3249;42.690;23.260;2022-09-03T06:03:53;94520.41;;;16.59;100.00
6433;BME280;3249;42.690;23.260;2022-09-03T06:06:20;94534.78;;;16.67;100.00
6433;BME280;3249;42.690;23.260;2022-09-03T06:08:53;94515.25;;;16.64;100.00
6433;BME280;3249;42.690;23.260;2022-09-03T06:11:20;94534.09;;;16.81;100.00
6433;BME280;3249;42.690;23.260;2022-09-03T06:13:47;94521.19;;;16.91;100.00
6433;BME280;3249;42.690;23.260;2022-09-03T06:16:13;94529.22;;;17.21;100.00
6433;BME280;3249;42.690;23.260;2022-09-03T06:18:38;94536.28;;;17.26;100.00
6433;BME280;3249;42.690;23.260;2022-09-03T06:21:05;94545.81;;;17.47;100.00
6433;BME280;3249;42.690;23.260;2022-09-03T06:23:32;94537.41;;;17.40;100.00
6433;BME280;3249;42.690;23.260;2022-09-03T06:26:03;94534.72;;;16.93;100.00
6433;BME280;3249;42.690;23.260;2022-09-03T06:28:30;94540.50;;;17.00;100.00
6433;BME280;3249;42.690;23.260;2022-09-03T06:31:00;94534.22;;;16.91;100.00
6433;BME280;3249;42.690;23.260;2022-09-03T06:33:27;94541.72;;;17.24;100.00
6433;BME280;3249;42.690;23.260;2022-09-03T06:35:55;94538.03;;;17.15;100.00
6433;BME280;3249;42.690;23.260;2022-09-03T06:38:23;94546.31;;;17.12;100.00
6433;BME280;3249;42.690;23.260;2022-09-03T06:40:56;94532.94;;;17.30;100.00
6433;BME280;3249;42.690;23.260;2022-09-03T06:43:23;94538.69;;;17.37;100.00
6433;BME280;3249;42.690;23.260;2022-09-03T06:45:53;94544.88;;;17.68;100.00
6433;BME280;3249;42.690;23.260;2022-09-03T06:48:19;94544.38;;;17.71;100.00
6433;BME280;3249;42.690;23.260;2022-09-03T06:50:53;94546.31;;;17.90;100.00
6433;BME280;3249;42.690;23.260;2022-09-03T06:53:18;94546.72;;;17.67;100.00
6433;BME280;3249;42.690;23.260;2022-09-03T06:55:52;94554.59;;;17.82;100.00
6433;BME280;3249;42.690;23.260;2022-09-03T06:58:17;94552.28;;;17.86;100.00
6433;BME280;3249;42.690;23.260;2022-09-03T07:00:43;94555.03;;;17.69;100.00
6433;BME280;3249;42.690;23.260;2022-09-03T07:03:08;94570.31;;;18.02;100.00
6433;BME280;3249;42.690;23.260;2022-09-03T07:05:34;94568.38;;;18.35;100.00
6433;BME280;3249;42.690;23.260;2022-09-03T07:07:59;94567.34;;;18.41;100.00
6433;BME280;3249;42.690;23.260;2022-09-03T07:10:24;94580.69;;;18.49;100.00
6433;BME280;3249;42.690;23.260;2022-09-03T07:12:53;94576.94;;;18.30;100.00
6433;BME280;3249;42.690;23.260;2022-09-03T07:15:20;94574.97;;;18.62;100.00
6433;BME280;3249;42.690;23.260;2022-09-03T07:17:45;94580.22;;;18.72;100.00
6433;BME280;3249;42.690;23.260;2022-09-03T07:20:10;94586.72;;;18.75;100.00
6433;BME280;3249;42.690;23.260;2022-09-03T07:22:36;94591.44;;;18.93;100.00
6433;BME280;3249;42.690;23.260;2022-09-03T07:25:02;94591.47;;;19.03;100.00
6433;BME280;3249;42.690;23.260;2022-09-03T07:27:27;94593.78;;;18.89;100.00
6433;BME280;3249;42.690;23.260;2022-09-03T07:29:52;94592.25;;;18.88;100.00
6433;BME280;3249;42.690;23.260;2022-09-03T07:32:18;94586.75;;;18.80;100.00
6433;BME280;3249;42.690;23.260;2022-09-03T07:34:43;94596.66;;;18.78;100.00
6433;BME280;3249;42.690;23.260;2022-09-03T07:37:09;94606.28;;;18.72;100.00
6433;BME280;3249;42.690;23.260;2022-09-03T07:39:35;94603.91;;;18.61;100.00
6433;BME280;3249;42.690;23.260;2022-09-03T07:42:00;94597.88;;;18.45;100.00
6433;BME280;3249;42.690;23.260;2022-09-03T07:44:29;94600.50;;;18.50;100.00
6433;BME280;3249;42.690;23.260;2022-09-03T07:46:55;94603.09;;;18.45;100.00
6433;BME280;3249;42.690;23.260;2022-09-03T07:49:20;94592.91;;;18.44;100.00
6433;BME280;3249;42.690;23.260;2022-09-03T07:51:46;94585.16;;;18.69;100.00
6433;BME280;3249;42.690;23.260;2022-09-03T07:54:14;94610.72;;;18.72;100.00
6433;BME280;3249;42.690;23.260;2022-09-03T07:56:40;94583.19;;;18.24;100.00
6433;BME280;3249;42.690;23.260;2022-09-03T07:59:07;94603.94;;;18.76;100.00
6433;BME280;3249;42.690;23.260;2022-09-03T08:01:34;94606.09;;;19.14;100.00
6433;BME280;3249;42.690;23.260;2022-09-03T08:04:00;94613.66;;;19.20;100.00
6433;BME280;3249;42.690;23.260;2022-09-03T08:06:28;94611.06;;;19.20;100.00
6433;BME280;3249;42.690;23.260;2022-09-03T08:09:02;94612.91;;;19.55;100.00
6433;BME280;3249;42.690;23.260;2022-09-03T08:11:28;94607.66;;;19.20;100.00
6433;BME280;3249;42.690;23.260;2022-09-03T08:13:59;94603.97;;;19.01;100.00
6433;BME280;3249;42.690;23.260;2022-09-03T08:16:29;94612.84;;;18.95;100.00
6433;BME280;3249;42.690;23.260;2022-09-03T08:18:56;94611.28;;;19.04;100.00
6433;BME280;3249;42.690;23.260;2022-09-03T08:21:22;94618.94;;;19.35;100.00
6433;BME280;3249;42.690;23.260;2022-09-03T08:23:51;94587.84;;;19.54;100.00
6433;BME280;3249;42.690;23.260;2022-09-03T08:26:18;94611.84;;;19.71;100.00
6433;BME280;3249;42.690;23.260;2022-09-03T08:28:44;94621.19;;;20.02;100.00
6433;BME280;3249;42.690;23.260;2022-09-03T08:31:21;94623.78;;;20.07;100.00
6433;BME280;3249;42.690;23.260;2022-09-03T08:33:51;94619.63;;;20.11;100.00
6433;BME280;3249;42.690;23.260;2022-09-03T08:36:26;94606.81;;;19.99;100.00
6433;BME280;3249;42.690;23.260;2022-09-03T08:38:54;94607.66;;;19.60;100.00
6433;BME280;3249;42.690;23.260;2022-09-03T08:44:41;94614.66;;;19.99;100.00
6433;BME280;3249;42.690;23.260;2022-09-03T08:55:50;94615.94;;;20.22;100.00
6433;BME280;3249;42.690;23.260;2022-09-03T08:58:21;94616.53;;;19.79;100.00
6433;BME280;3249;42.690;23.260;2022-09-03T09:23:35;94610.53;;;19.68;100.00
6433;BME280;3249;42.690;23.260;2022-09-03T09:26:06;94613.97;;;19.39;100.00
6433;BME280;3249;42.690;23.260;2022-09-03T09:28:35;94612.88;;;19.20;100.00
6433;BME280;3249;42.690;23.260;2022-09-03T09:31:03;94622.56;;;19.54;100.00
6433;BME280;3249;42.690;23.260;2022-09-03T09:33:29;94627.47;;;19.91;100.00
6433;BME280;3249;42.690;23.260;2022-09-03T09:35:58;94614.59;;;20.29;100.00
6433;BME280;3249;42.690;23.260;2022-09-03T09:38:29;94621.03;;;20.57;100.00
6433;BME280;3249;42.690;23.260;2022-09-03T09:40:55;94626.78;;;20.54;100.00
6433;BME280;3249;42.690;23.260;2022-09-03T09:43:22;94607.94;;;19.63;100.00
6433;BME280;3249;42.690;23.260;2022-09-03T09:45:51;94630.81;;;20.21;100.00
6433;BME280;3249;42.690;23.260;2022-09-03T09:48:29;94615.41;;;20.15;100.00
6433;BME280;3249;42.690;23.260;2022-09-03T09:51:10;94629.41;;;20.54;100.00
6433;BME280;3249;42.690;23.260;2022-09-03T09:53:37;94622.44;;;20.29;100.00
6433;BME280;3249;42.690;23.260;2022-09-03T09:56:03;94619.63;;;20.11;100.00
6433;BME280;3249;42.690;23.260;2022-09-03T09:58:31;94630.47;;;20.43;100.00
6433;BME280;3249;42.690;23.260;2022-09-03T10:01:01;94627.66;;;20.29;100.00
6433;BME280;3249;42.690;23.260;2022-09-03T10:03:30;94621.88;;;20.37;100.00
6433;BME280;3249;42.690;23.260;2022-09-03T10:06:04;94609.16;;;20.11;100.00
6433;BME280;3249;42.690;23.260;2022-09-03T10:08:49;94616.41;;;20.34;100.00
6433;BME280;3249;42.690;23.260;2022-09-03T10:11:16;94631.41;;;20.67;100.00
6433;BME280;3249;42.690;23.260;2022-09-03T10:13:45;94632.97;;;20.73;100.00
6433;BME280;3249;42.690;23.260;2022-09-03T10:16:21;94627.19;;;20.76;100.00
6433;BME280;3249;42.690;23.260;2022-09-03T10:19:22;94620.88;;;20.82;100.00
6433;BME280;3249;42.690;23.260;2022-09-03T10:22:10;94628.94;;;20.95;100.00
6433;BME280;3249;42.690;23.260;2022-09-03T10:24:59;94619.91;;;20.73;100.00
6433;BME280;3249;42.690;23.260;2022-09-03T10:27:27;94602.91;;;19.97;100.00
6433;BME280;3249;42.690;23.260;2022-09-03T10:29:52;94620.25;;;20.46;100.00
6433;BME280;3249;42.690;23.260;2022-09-03T10:32:44;94615.31;;;20.40;100.00
6433;BME280;3249;42.690;23.260;2022-09-03T10:35:31;94622.59;;;20.53;100.00
6433;BME280;3249;42.690;23.260;2022-09-03T10:41:32;94618.03;;;20.15;100.00
6433;BME280;3249;42.690;23.260;2022-09-03T10:44:26;94629.19;;;20.40;100.00
6433;BME280;3249;42.690;23.260;2022-09-03T10:46:55;94624.38;;;20.67;100.00
6433;BME280;3249;42.690;23.260;2022-09-03T10:55:12;94631.09;;;20.25;100.00
6433;BME280;3249;42.690;23.260;2022-09-03T11:00:21;94630.28;;;20.24;100.00
6433;BME280;3249;42.690;23.260;2022-09-03T11:03:12;94616.13;;;20.35;100.00
6433;BME280;3249;42.690;23.260;2022-09-03T11:08:41;94625.84;;;20.83;100.00
6433;BME280;3249;42.690;23.260;2022-09-03T11:11:16;94631.75;;;21.09;100.00
6433;BME280;3249;42.690;23.260;2022-09-03T11:13:57;94633.69;;;21.27;100.00
6433;BME280;3249;42.690;23.260;2022-09-03T11:16:30;94617.97;;;21.32;100.00
6433;BME280;3249;42.690;23.260;2022-09-03T11:19:05;94624.38;;;21.11;100.00
6433;BME280;3249;42.690;23.260;2022-09-03T11:21:35;94630.47;;;21.01;100.00
6433;BME280;3249;42.690;23.260;2022-09-03T11:26:38;94619.16;;;21.11;100.00
6433;BME280;3249;42.690;23.260;2022-09-03T11:32:23;94626.06;;;21.35;100.00
6433;BME280;3249;42.690;23.260;2022-09-03T11:36:49;94619.41;;;21.48;100.00
6433;BME280;3249;42.690;23.260;2022-09-03T11:39:25;94607.19;;;21.67;100.00
6433;BME280;3249;42.690;23.260;2022-09-03T11:41:59;94624.81;;;21.90;100.00
6433;BME280;3249;42.690;23.260;2022-09-03T11:44:41;94615.72;;;21.49;100.00
6433;BME280;3249;42.690;23.260;2022-09-03T11:47:36;94621.41;;;21.27;100.00
6433;BME280;3249;42.690;23.260;2022-09-03T11:50:29;94621.91;;;21.29;100.00
6433;BME280;3249;42.690;23.260;2022-09-03T11:53:26;94631.94;;;21.56;100.00
6433;BME280;3249;42.690;23.260;2022-09-03T11:55:58;94616.91;;;21.66;100.00
6433;BME280;3249;42.690;23.260;2022-09-03T11:58:33;94631.22;;;21.79;100.00
6433;BME280;3249;42.690;23.260;2022-09-03T12:01:01;94631.13;;;21.89;100.00
6433;BME280;3249;42.690;23.260;2022-09-03T12:19:56;94598.81;;;21.65;100.00
6433;BME280;3249;42.690;23.260;2022-09-03T12:22:25;94602.50;;;21.64;100.00
6433;BME280;3249;42.690;23.260;2022-09-03T12:24:53;94603.97;;;21.75;100.00
6433;BME280;3249;42.690;23.260;2022-09-03T12:27:25;94609.72;;;22.06;100.00
6433;BME280;3249;42.690;23.260;2022-09-03T12:32:20;94594.69;;;22.11;100.00
6433;BME280;3249;42.690;23.260;2022-09-03T12:34:45;94605.56;;;22.23;100.00
6433;BME280;3249;42.690;23.260;2022-09-03T12:37:22;94599.38;;;22.14;100.00
6433;BME280;3249;42.690;23.260;2022-09-03T12:39:52;94625.31;;;22.39;100.00
6433;BME280;3249;42.690;23.260;2022-09-03T12:42:36;94620.63;;;22.18;100.00
6433;BME280;3249;42.690;23.260;2022-09-03T12:45:06;94616.63;;;21.96;100.00
6433;BME280;3249;42.690;23.260;2022-09-03T12:47:38;94607.25;;;21.90;100.00
6433;BME280;3249;42.690;23.260;2022-09-03T12:50:26;94605.63;;;21.66;100.00
6433;BME280;3249;42.690;23.260;2022-09-03T12:52:58;94600.59;;;21.69;100.00
6433;BME280;3249;42.690;23.260;2022-09-03T12:55:26;94594.28;;;21.75;100.00
6433;BME280;3249;42.690;23.260;2022-09-03T13:00:23;94585.78;;;21.60;100.00
6433;BME280;3249;42.690;23.260;2022-09-03T13:05:35;94582.69;;;21.53;100.00
6433;BME280;3249;42.690;23.260;2022-09-03T13:08:06;94590.25;;;21.26;100.00
6433;BME280;3249;42.690;23.260;2022-09-03T13:10:37;94582.75;;;21.48;100.00
6433;BME280;3249;42.690;23.260;2022-09-03T13:15:59;94563.78;;;21.84;100.00
6433;BME280;3249;42.690;23.260;2022-09-03T13:18:36;94574.50;;;22.12;100.00
6433;BME280;3249;42.690;23.260;2022-09-03T13:31:52;94570.16;;;22.49;100.00
6433;BME280;3249;42.690;23.260;2022-09-03T13:34:33;94577.69;;;22.32;100.00
6433;BME280;3249;42.690;23.260;2022-09-03T13:39:40;94577.00;;;22.45;100.00
6433;BME280;3249;42.690;23.260;2022-09-03T13:42:37;94577.28;;;22.67;100.00
6433;BME280;3249;42.690;23.260;2022-09-03T13:45:40;94574.56;;;22.91;100.00
6433;BME280;3249;42.690;23.260;2022-09-03T13:48:19;94575.91;;;23.07;99.65
6433;BME280;3249;42.690;23.260;2022-09-03T13:53:47;94575.28;;;22.78;100.00
6433;BME280;3249;42.690;23.260;2022-09-03T13:56:28;94572.41;;;22.93;100.00
6433;BME280;3249;42.690;23.260;2022-09-03T13:59:19;94562.56;;;22.66;100.00
6433;BME280;3249;42.690;23.260;2022-09-03T14:08:18;94579.50;;;23.61;98.48
6433;BME280;3249;42.690;23.260;2022-09-03T14:13:36;94560.00;;;23.35;98.80
6433;BME280;3249;42.690;23.260;2022-09-03T14:18:53;94585.59;;;23.89;95.62
6433;BME280;3249;42.690;23.260;2022-09-03T14:24:16;94587.00;;;23.68;96.58
6433;BME280;3249;42.690;23.260;2022-09-03T14:26:53;94591.34;;;23.45;96.94
6433;BME280;3249;42.690;23.260;2022-09-03T14:29:24;94583.03;;;23.38;96.43
6433;BME280;3249;42.690;23.260;2022-09-03T14:53:14;94584.13;;;23.00;100.00
6433;BME280;3249;42.690;23.260;2022-09-03T15:01:28;94578.97;;;22.95;100.00
6433;BME280;3249;42.690;23.260;2022-09-03T15:09:39;94573.84;;;22.85;97.33
6433;BME280;3249;42.690;23.260;2022-09-03T15:14:48;94600.88;;;23.41;97.26
6433;BME280;3249;42.690;23.260;2022-09-03T15:23:05;94602.03;;;23.35;96.00
6433;BME280;3249;42.690;23.260;2022-09-03T15:30:56;94609.63;;;24.01;89.15
6433;BME280;3249;42.690;23.260;2022-09-03T15:33:50;94609.41;;;23.97;89.29
6433;BME280;3249;42.690;23.260;2022-09-03T15:36:26;94605.53;;;24.08;87.93
6433;BME280;3249;42.690;23.260;2022-09-03T15:39:02;94607.88;;;24.23;91.43
6433;BME280;3249;42.690;23.260;2022-09-03T15:44:15;94612.38;;;23.91;92.16
6433;BME280;3249;42.690;23.260;2022-09-03T15:46:58;94613.91;;;24.10;91.75
6433;BME280;3249;42.690;23.260;2022-09-03T15:52:08;94621.59;;;24.20;85.19
6433;BME280;3249;42.690;23.260;2022-09-03T15:54:41;94597.56;;;22.99;93.43
6433;BME280;3249;42.690;23.260;2022-09-03T15:57:19;94619.72;;;23.30;93.18
6433;BME280;3249;42.690;23.260;2022-09-03T15:59:56;94624.47;;;23.60;91.62
6433;BME280;3249;42.690;23.260;2022-09-03T16:07:45;94620.81;;;23.61;94.03
6433;BME280;3249;42.690;23.260;2022-09-03T16:10:14;94628.53;;;23.84;89.87
6433;BME280;3249;42.690;23.260;2022-09-03T16:15:50;94635.22;;;23.95;88.06
6433;BME280;3249;42.690;23.260;2022-09-03T16:19:33;94645.88;;;23.85;88.95
6433;BME280;3249;42.690;23.260;2022-09-03T16:24:02;94645.78;;;23.77;86.43
6433;BME280;3249;42.690;23.260;2022-09-03T16:26:50;94642.84;;;23.46;91.13
6433;BME280;3249;42.690;23.260;2022-09-03T16:29:24;94631.06;;;23.25;93.08
6433;BME280;3249;42.690;23.260;2022-09-03T16:32:26;94628.06;;;22.95;95.30
6433;BME280;3249;42.690;23.260;2022-09-03T16:34:54;94652.91;;;22.84;96.87
6433;BME280;3249;42.690;23.260;2022-09-03T16:40:25;94645.91;;;22.56;100.00
6433;BME280;3249;42.690;23.260;2022-09-03T16:51:07;94645.91;;;22.03;100.00
6433;BME280;3249;42.690;23.260;2022-09-03T17:18:51;94676.16;;;20.65;100.00
6433;BME280;3249;42.690;23.260;2022-09-03T17:29:01;94674.00;;;19.94;100.00
6433;BME280;3249;42.690;23.260;2022-09-03T17:34:15;94689.97;;;19.67;100.00
6433;BME280;3249;42.690;23.260;2022-09-03T17:37:04;94689.69;;;19.39;100.00
6433;BME280;3249;42.690;23.260;2022-09-03T17:45:19;94699.47;;;18.97;100.00
6433;BME280;3249;42.690;23.260;2022-09-03T17:51:03;94697.91;;;18.91;100.00
6433;BME280;3249;42.690;23.260;2022-09-03T17:56:50;94718.28;;;18.94;100.00
6433;BME280;3249;42.690;23.260;2022-09-03T17:59:36;94706.19;;;18.73;100.00
6433;BME280;3249;42.690;23.260;2022-09-03T18:07:21;94704.00;;;18.50;100.00
6433;BME280;3249;42.690;23.260;2022-09-03T18:10:15;94723.66;;;18.72;100.00
6433;BME280;3249;42.690;23.260;2022-09-03T18:12:53;94725.78;;;18.80;100.00
6433;BME280;3249;42.690;23.260;2022-09-03T18:15:28;94727.50;;;18.60;100.00
6433;BME280;3249;42.690;23.260;2022-09-03T18:20:24;94738.09;;;18.90;100.00
6433;BME280;3249;42.690;23.260;2022-09-03T18:26:06;94732.88;;;18.90;100.00
6433;BME280;3249;42.690;23.260;2022-09-03T18:29:06;94737.56;;;18.93;100.00